Meteo Giornale » Osservazioni meteo Stati Uniti (USA) » Millington
ore: 19:50 - Osservazioni Meteo Millington
Lat. 35° 21' N Lon. 89° 52' W Alt. 98 metri s.l.m.
30 °C
Sereno
Temp. 24 Ore
22 °C
36 °C
Nord
0 Km/h
Dew point 21 °C
Umidità 58 %
Visibilità 10 Km
Il sole sorge alle ore 06:31
Il sole tramonta alle ore 19:28
| Data e Ora | Cielo e Fenomeni | T °C | DP °C | Um. % | Pres. hPa | Vis. km | Vento km/h | |
|---|---|---|---|---|---|---|---|---|
| Oggi h: 19:50 | Sereno | 30 | 21 | 58 | 1015 | 10 | N 0 | |
| Oggi h: 18:50 | Sereno | 34 | 21 | 46 | 1015 | 10 | N 0 | |
| Oggi h: 17:50 | Sereno | 35 | 20 | 41 | 1016 | 10 | S/SE 7.4 | |
| Oggi h: 16:50 | Sereno | 35 | 20 | 41 | 1016 | 10 | S/SE 7.4 | |
| Oggi h: 15:50 | Sereno | 36 | 20 | 39 | 1016 | 10 | N 0 | |
| Oggi h: 14:50 | Poco Nuvoloso | 36 | 20 | 39 | 1017 | 10 | N 0 | |
| Oggi h: 13:50 | Poco Nuvoloso | 36 | 19 | 36 | 1017 | 10 | SO 11.1 | |
| Oggi h: 12:50 | Nuvoloso | 35 | 20 | 41 | 1018 | 10 | SO 13 | |
| Oggi h: 11:50 | Nuvoloso | 35 | 21 | 44 | 1019 | 10 | SO 7.4 | |
| Oggi h: 10:50 | Sereno | 33 | 22 | 52 | 1019 | 10 | O 14.8 | |
| Oggi h: 09:50 | Sereno | 31 | 22 | 58 | 1019 | 10 | O/SO 9.3 | |
| Oggi h: 08:50 | Sereno | 28 | 22 | 69 | 1019 | 10 | SO 7.4 | |
| Oggi h: 07:55 | Sereno | 25 | 22 | 83 | 1018 | 10 | N 5.5 | |
| Oggi h: 07:35 | Sereno | 24 | 22 | 88 | 1018 | 10 | N 0 | |
| Oggi h: 07:15 | Sereno | 23 | 22 | 94 | 1018 | 10 | N 0 | |
| Oggi h: 06:55 | Sereno | 22 | 21 | 94 | 1018 | 10 | N 0 | |
| Oggi h: 06:35 | Sereno | 22 | 21 | 94 | 1018 | 10 | N 0 | |
| Oggi h: 06:15 | Sereno | 22 | 21 | 94 | 1017 | 10 | N 0 | |
| Oggi h: 05:55 | Sereno | 22 | 21 | 94 | 1017 | 10 | N 0 | |
| Oggi h: 05:35 | Sereno | 22 | 21 | 94 | 1017 | 10 | N 0 | |
| Oggi h: 05:15 | Sereno | 22 | 21 | 94 | 1017 | 10 | E/SE 7.4 | |
| Oggi h: 04:55 | Sereno | 23 | 21 | 88 | 1017 | 10 | E/SE 9.3 | |
| Oggi h: 04:35 | Sereno | 22 | 21 | 94 | 1017 | 10 | E/SE 9.3 | |
| Oggi h: 04:15 | Sereno | 23 | 21 | 88 | 1017 | 10 | E/SE 7.4 | |
| Oggi h: 03:55 | Sereno | 22 | 21 | 94 | 1017 | 10 | E/SE 7.4 | |
| Oggi h: 03:35 | Sereno | 23 | 21 | 88 | 1016 | 10 | N 0 | |
| Oggi h: 03:15 | Sereno | 23 | 21 | 88 | 1016 | 10 | N 5.5 | |
| Oggi h: 02:55 | Sereno | 23 | 21 | 88 | 1016 | 10 | N 0 | |
| Oggi h: 02:35 | Sereno | 23 | 22 | 94 | 1016 | 10 | N 5.5 | |
| Oggi h: 02:15 | Sereno | 23 | 22 | 94 | 1016 | 10 | N 0 | |



